sensor_id;sensor_type;location;lat;lon;timestamp;P1;durP1;ratioP1;P2;durP2;ratioP2
33491;SDS011;20010;51.488;7.232;2023-12-22T00:00:23;8.05;;;3.38;;
33491;SDS011;20010;51.488;7.232;2023-12-22T00:02:51;9.38;;;3.88;;
33491;SDS011;20010;51.488;7.232;2023-12-22T00:05:18;8.93;;;3.30;;
33491;SDS011;20010;51.488;7.232;2023-12-22T00:07:44;12.82;;;4.30;;
33491;SDS011;20010;51.488;7.232;2023-12-22T00:10:15;6.85;;;3.75;;
33491;SDS011;20010;51.488;7.232;2023-12-22T00:12:43;8.15;;;4.15;;
33491;SDS011;20010;51.488;7.232;2023-12-22T00:15:10;7.97;;;3.97;;
33491;SDS011;20010;51.488;7.232;2023-12-22T00:17:36;5.18;;;3.70;;
33491;SDS011;20010;51.488;7.232;2023-12-22T00:20:04;12.55;;;4.40;;
33491;SDS011;20010;51.488;7.232;2023-12-22T00:22:33;11.95;;;4.35;;
33491;SDS011;20010;51.488;7.232;2023-12-22T00:25:00;11.35;;;4.10;;
33491;SDS011;20010;51.488;7.232;2023-12-22T00:27:27;9.60;;;4.45;;
33491;SDS011;20010;51.488;7.232;2023-12-22T00:29:54;11.65;;;4.80;;
33491;SDS011;20010;51.488;7.232;2023-12-22T00:32:20;10.85;;;3.95;;
33491;SDS011;20010;51.488;7.232;2023-12-22T00:34:47;13.05;;;4.78;;
33491;SDS011;20010;51.488;7.232;2023-12-22T00:37:15;11.88;;;4.22;;
33491;SDS011;20010;51.488;7.232;2023-12-22T00:39:42;10.60;;;3.55;;
33491;SDS011;20010;51.488;7.232;2023-12-22T00:42:09;12.20;;;3.63;;
33491;SDS011;20010;51.488;7.232;2023-12-22T00:44:35;13.13;;;4.45;;
33491;SDS011;20010;51.488;7.232;2023-12-22T00:47:03;13.85;;;5.05;;
33491;SDS011;20010;51.488;7.232;2023-12-22T00:49:29;7.40;;;3.55;;
33491;SDS011;20010;51.488;7.232;2023-12-22T00:51:56;9.27;;;3.70;;
33491;SDS011;20010;51.488;7.232;2023-12-22T00:54:23;10.55;;;4.47;;
33491;SDS011;20010;51.488;7.232;2023-12-22T00:56:51;9.52;;;3.60;;
33491;SDS011;20010;51.488;7.232;2023-12-22T00:59:19;11.02;;;3.35;;
33491;SDS011;20010;51.488;7.232;2023-12-22T01:01:46;7.22;;;4.00;;
33491;SDS011;20010;51.488;7.232;2023-12-22T01:04:13;9.75;;;3.90;;
33491;SDS011;20010;51.488;7.232;2023-12-22T01:06:41;8.63;;;4.15;;
33491;SDS011;20010;51.488;7.232;2023-12-22T01:09:08;14.20;;;5.22;;
33491;SDS011;20010;51.488;7.232;2023-12-22T01:11:35;12.50;;;4.60;;
33491;SDS011;20010;51.488;7.232;2023-12-22T01:14:02;9.75;;;3.40;;
33491;SDS011;20010;51.488;7.232;2023-12-22T01:16:28;10.15;;;4.15;;
33491;SDS011;20010;51.488;7.232;2023-12-22T01:18:55;12.10;;;3.97;;
33491;SDS011;20010;51.488;7.232;2023-12-22T01:21:22;11.20;;;4.47;;
33491;SDS011;20010;51.488;7.232;2023-12-22T01:23:49;16.77;;;5.78;;
33491;SDS011;20010;51.488;7.232;2023-12-22T01:26:16;16.55;;;5.10;;
33491;SDS011;20010;51.488;7.232;2023-12-22T01:28:42;12.45;;;4.18;;
33491;SDS011;20010;51.488;7.232;2023-12-22T01:31:09;10.05;;;4.32;;
33491;SDS011;20010;51.488;7.232;2023-12-22T01:33:36;12.80;;;4.00;;
33491;SDS011;20010;51.488;7.232;2023-12-22T01:36:03;11.35;;;4.30;;
33491;SDS011;20010;51.488;7.232;2023-12-22T01:38:30;11.07;;;5.40;;
33491;SDS011;20010;51.488;7.232;2023-12-22T01:40:57;11.10;;;3.90;;
33491;SDS011;20010;51.488;7.232;2023-12-22T01:43:24;8.80;;;4.13;;
33491;SDS011;20010;51.488;7.232;2023-12-22T01:45:52;11.07;;;3.83;;
33491;SDS011;20010;51.488;7.232;2023-12-22T01:50:50;6.72;;;3.50;;
33491;SDS011;20010;51.488;7.232;2023-12-22T01:53:19;6.43;;;3.08;;
33491;SDS011;20010;51.488;7.232;2023-12-22T01:55:47;3.58;;;3.17;;
33491;SDS011;20010;51.488;7.232;2023-12-22T01:58:15;7.20;;;4.07;;
33491;SDS011;20010;51.488;7.232;2023-12-22T02:00:41;5.88;;;2.92;;
33491;SDS011;20010;51.488;7.232;2023-12-22T02:03:08;7.72;;;4.25;;
33491;SDS011;20010;51.488;7.232;2023-12-22T02:05:35;5.10;;;3.45;;
33491;SDS011;20010;51.488;7.232;2023-12-22T02:08:03;5.57;;;3.00;;
33491;SDS011;20010;51.488;7.232;2023-12-22T02:10:30;3.33;;;2.90;;
33491;SDS011;20010;51.488;7.232;2023-12-22T02:12:56;9.00;;;3.03;;
33491;SDS011;20010;51.488;7.232;2023-12-22T02:15:23;4.32;;;2.80;;
33491;SDS011;20010;51.488;7.232;2023-12-22T02:17:55;10.40;;;3.42;;
33491;SDS011;20010;51.488;7.232;2023-12-22T02:20:25;3.25;;;2.80;;
33491;SDS011;20010;51.488;7.232;2023-12-22T02:22:53;5.32;;;2.70;;
33491;SDS011;20010;51.488;7.232;2023-12-22T02:25:20;7.80;;;3.10;;
33491;SDS011;20010;51.488;7.232;2023-12-22T02:27:49;6.53;;;3.20;;
33491;SDS011;20010;51.488;7.232;2023-12-22T02:30:24;5.03;;;3.30;;
33491;SDS011;20010;51.488;7.232;2023-12-22T02:32:54;7.75;;;4.05;;
33491;SDS011;20010;51.488;7.232;2023-12-22T02:35:23;10.85;;;4.57;;
33491;SDS011;20010;51.488;7.232;2023-12-22T02:37:52;7.22;;;3.70;;
33491;SDS011;20010;51.488;7.232;2023-12-22T02:40:19;6.57;;;3.58;;
33491;SDS011;20010;51.488;7.232;2023-12-22T02:42:46;7.90;;;3.45;;
33491;SDS011;20010;51.488;7.232;2023-12-22T02:45:14;6.20;;;3.45;;
33491;SDS011;20010;51.488;7.232;2023-12-22T02:47:42;6.78;;;3.53;;
33491;SDS011;20010;51.488;7.232;2023-12-22T02:50:09;10.50;;;3.53;;
33491;SDS011;20010;51.488;7.232;2023-12-22T02:52:37;7.03;;;3.53;;
33491;SDS011;20010;51.488;7.232;2023-12-22T02:55:04;5.53;;;3.28;;
33491;SDS011;20010;51.488;7.232;2023-12-22T02:57:31;7.35;;;3.70;;
33491;SDS011;20010;51.488;7.232;2023-12-22T02:59:58;9.50;;;3.53;;
33491;SDS011;20010;51.488;7.232;2023-12-22T03:02:25;8.73;;;3.58;;
33491;SDS011;20010;51.488;7.232;2023-12-22T03:04:51;7.85;;;4.13;;
33491;SDS011;20010;51.488;7.232;2023-12-22T03:07:18;10.88;;;4.05;;
33491;SDS011;20010;51.488;7.232;2023-12-22T03:09:45;4.20;;;3.45;;
33491;SDS011;20010;51.488;7.232;2023-12-22T03:12:12;10.73;;;3.38;;
33491;SDS011;20010;51.488;7.232;2023-12-22T03:14:38;4.05;;;3.05;;
33491;SDS011;20010;51.488;7.232;2023-12-22T03:17:05;7.03;;;3.50;;
33491;SDS011;20010;51.488;7.232;2023-12-22T03:19:33;10.57;;;4.10;;
33491;SDS011;20010;51.488;7.232;2023-12-22T03:22:00;9.98;;;3.83;;
33491;SDS011;20010;51.488;7.232;2023-12-22T03:24:27;9.88;;;3.63;;
33491;SDS011;20010;51.488;7.232;2023-12-22T03:26:56;8.93;;;3.92;;
33491;SDS011;20010;51.488;7.232;2023-12-22T03:29:23;9.95;;;3.65;;
33491;SDS011;20010;51.488;7.232;2023-12-22T03:31:49;5.47;;;3.63;;
33491;SDS011;20010;51.488;7.232;2023-12-22T03:34:18;11.68;;;3.90;;
33491;SDS011;20010;51.488;7.232;2023-12-22T03:36:44;14.32;;;4.25;;
33491;SDS011;20010;51.488;7.232;2023-12-22T03:39:15;9.07;;;4.40;;
33491;SDS011;20010;51.488;7.232;2023-12-22T03:41:42;8.75;;;3.83;;
33491;SDS011;20010;51.488;7.232;2023-12-22T03:44:09;12.13;;;4.80;;
33491;SDS011;20010;51.488;7.232;2023-12-22T03:46:36;13.98;;;4.38;;
33491;SDS011;20010;51.488;7.232;2023-12-22T03:49:04;9.25;;;4.30;;
33491;SDS011;20010;51.488;7.232;2023-12-22T03:51:31;12.90;;;4.50;;
33491;SDS011;20010;51.488;7.232;2023-12-22T03:53:57;10.10;;;4.55;;
33491;SDS011;20010;51.488;7.232;2023-12-22T03:56:24;12.77;;;5.55;;
33491;SDS011;20010;51.488;7.232;2023-12-22T03:58:51;9.95;;;3.92;;
33491;SDS011;20010;51.488;7.232;2023-12-22T04:01:18;13.02;;;4.05;;
33491;SDS011;20010;51.488;7.232;2023-12-22T04:03:45;20.60;;;5.45;;
33491;SDS011;20010;51.488;7.232;2023-12-22T04:06:12;13.60;;;4.78;;
33491;SDS011;20010;51.488;7.232;2023-12-22T04:08:39;16.92;;;5.63;;
33491;SDS011;20010;51.488;7.232;2023-12-22T04:11:06;11.73;;;4.03;;
33491;SDS011;20010;51.488;7.232;2023-12-22T04:13:32;18.73;;;5.10;;
33491;SDS011;20010;51.488;7.232;2023-12-22T04:16:00;19.20;;;5.20;;
33491;SDS011;20010;51.488;7.232;2023-12-22T04:18:29;8.85;;;4.22;;
33491;SDS011;20010;51.488;7.232;2023-12-22T04:20:56;10.07;;;3.92;;
33491;SDS011;20010;51.488;7.232;2023-12-22T04:23:22;8.13;;;3.38;;
33491;SDS011;20010;51.488;7.232;2023-12-22T04:25:49;3.75;;;2.72;;
33491;SDS011;20010;51.488;7.232;2023-12-22T04:28:18;8.27;;;3.20;;
33491;SDS011;20010;51.488;7.232;2023-12-22T04:30:44;6.53;;;3.15;;
33491;SDS011;20010;51.488;7.232;2023-12-22T04:33:12;8.82;;;3.42;;
33491;SDS011;20010;51.488;7.232;2023-12-22T04:35:38;9.27;;;3.60;;
33491;SDS011;20010;51.488;7.232;2023-12-22T04:38:05;6.55;;;3.10;;
33491;SDS011;20010;51.488;7.232;2023-12-22T04:40:33;5.28;;;3.25;;
33491;SDS011;20010;51.488;7.232;2023-12-22T04:43:00;3.92;;;3.40;;
33491;SDS011;20010;51.488;7.232;2023-12-22T04:45:26;4.00;;;2.88;;
33491;SDS011;20010;51.488;7.232;2023-12-22T04:47:53;4.55;;;3.60;;
33491;SDS011;20010;51.488;7.232;2023-12-22T04:50:20;3.45;;;3.15;;
33491;SDS011;20010;51.488;7.232;2023-12-22T04:52:47;6.78;;;3.38;;
33491;SDS011;20010;51.488;7.232;2023-12-22T04:55:14;5.18;;;3.10;;
33491;SDS011;20010;51.488;7.232;2023-12-22T04:57:42;7.72;;;3.97;;
33491;SDS011;20010;51.488;7.232;2023-12-22T05:00:08;3.78;;;3.20;;
33491;SDS011;20010;51.488;7.232;2023-12-22T05:02:35;4.65;;;3.60;;
33491;SDS011;20010;51.488;7.232;2023-12-22T05:05:02;6.20;;;3.55;;
33491;SDS011;20010;51.488;7.232;2023-12-22T05:07:30;7.95;;;3.58;;
33491;SDS011;20010;51.488;7.232;2023-12-22T05:09:57;5.78;;;3.40;;
33491;SDS011;20010;51.488;7.232;2023-12-22T05:12:25;6.20;;;3.33;;
33491;SDS011;20010;51.488;7.232;2023-12-22T05:14:51;9.65;;;3.88;;
33491;SDS011;20010;51.488;7.232;2023-12-22T05:17:18;5.80;;;3.70;;
33491;SDS011;20010;51.488;7.232;2023-12-22T05:19:45;11.02;;;4.00;;
33491;SDS011;20010;51.488;7.232;2023-12-22T05:22:12;11.27;;;4.32;;
33491;SDS011;20010;51.488;7.232;2023-12-22T05:24:40;9.05;;;3.50;;
33491;SDS011;20010;51.488;7.232;2023-12-22T05:27:07;10.45;;;4.53;;
33491;SDS011;20010;51.488;7.232;2023-12-22T05:29:36;8.98;;;3.50;;
33491;SDS011;20010;51.488;7.232;2023-12-22T05:32:03;7.85;;;2.90;;
33491;SDS011;20010;51.488;7.232;2023-12-22T05:34:30;13.40;;;3.95;;
33491;SDS011;20010;51.488;7.232;2023-12-22T05:36:58;9.55;;;4.20;;
33491;SDS011;20010;51.488;7.232;2023-12-22T05:39:25;10.32;;;3.38;;
33491;SDS011;20010;51.488;7.232;2023-12-22T05:41:52;12.00;;;4.15;;
33491;SDS011;20010;51.488;7.232;2023-12-22T05:44:18;7.90;;;3.25;;
33491;SDS011;20010;51.488;7.232;2023-12-22T05:46:45;9.48;;;3.80;;
33491;SDS011;20010;51.488;7.232;2023-12-22T05:49:12;13.60;;;3.35;;
33491;SDS011;20010;51.488;7.232;2023-12-22T05:51:39;9.65;;;3.70;;
33491;SDS011;20010;51.488;7.232;2023-12-22T05:54:07;10.77;;;3.38;;
33491;SDS011;20010;51.488;7.232;2023-12-22T05:56:34;11.70;;;3.50;;
33491;SDS011;20010;51.488;7.232;2023-12-22T05:59:01;11.57;;;3.80;;
33491;SDS011;20010;51.488;7.232;2023-12-22T06:01:29;8.07;;;3.85;;
33491;SDS011;20010;51.488;7.232;2023-12-22T06:03:56;9.13;;;3.70;;
33491;SDS011;20010;51.488;7.232;2023-12-22T06:06:23;11.93;;;3.75;;
33491;SDS011;20010;51.488;7.232;2023-12-22T06:08:50;7.15;;;3.40;;
33491;SDS011;20010;51.488;7.232;2023-12-22T06:11:17;11.88;;;3.83;;
33491;SDS011;20010;51.488;7.232;2023-12-22T06:13:43;9.52;;;3.53;;
33491;SDS011;20010;51.488;7.232;2023-12-22T06:16:14;8.82;;;3.67;;
33491;SDS011;20010;51.488;7.232;2023-12-22T06:18:42;14.95;;;4.68;;
33491;SDS011;20010;51.488;7.232;2023-12-22T06:21:09;10.68;;;3.47;;
33491;SDS011;20010;51.488;7.232;2023-12-22T06:23:37;11.73;;;3.47;;
33491;SDS011;20010;51.488;7.232;2023-12-22T06:26:10;8.48;;;3.75;;
33491;SDS011;20010;51.488;7.232;2023-12-22T06:28:38;12.82;;;3.70;;
33491;SDS011;20010;51.488;7.232;2023-12-22T06:31:07;8.45;;;3.60;;
33491;SDS011;20010;51.488;7.232;2023-12-22T06:33:34;12.02;;;4.10;;
33491;SDS011;20010;51.488;7.232;2023-12-22T06:36:01;18.95;;;6.75;;
33491;SDS011;20010;51.488;7.232;2023-12-22T06:38:28;11.68;;;4.35;;
33491;SDS011;20010;51.488;7.232;2023-12-22T06:40:55;10.35;;;4.18;;
33491;SDS011;20010;51.488;7.232;2023-12-22T06:43:22;9.98;;;3.30;;
33491;SDS011;20010;51.488;7.232;2023-12-22T06:45:49;14.88;;;4.13;;
33491;SDS011;20010;51.488;7.232;2023-12-22T06:48:18;10.70;;;4.07;;
33491;SDS011;20010;51.488;7.232;2023-12-22T06:50:45;11.82;;;4.30;;
33491;SDS011;20010;51.488;7.232;2023-12-22T06:53:12;9.05;;;3.42;;
33491;SDS011;20010;51.488;7.232;2023-12-22T06:55:52;12.40;;;4.70;;
33491;SDS011;20010;51.488;7.232;2023-12-22T06:58:19;12.43;;;3.67;;
33491;SDS011;20010;51.488;7.232;2023-12-22T07:00:48;12.30;;;4.47;;
33491;SDS011;20010;51.488;7.232;2023-12-22T07:03:15;16.23;;;5.45;;
33491;SDS011;20010;51.488;7.232;2023-12-22T07:05:44;11.20;;;3.63;;
33491;SDS011;20010;51.488;7.232;2023-12-22T07:08:12;13.70;;;5.00;;
33491;SDS011;20010;51.488;7.232;2023-12-22T07:10:39;14.65;;;4.32;;
33491;SDS011;20010;51.488;7.232;2023-12-22T07:13:07;16.55;;;4.68;;
33491;SDS011;20010;51.488;7.232;2023-12-22T07:15:34;13.45;;;4.28;;
33491;SDS011;20010;51.488;7.232;2023-12-22T07:18:00;11.75;;;4.60;;
33491;SDS011;20010;51.488;7.232;2023-12-22T07:20:28;12.10;;;4.28;;
33491;SDS011;20010;51.488;7.232;2023-12-22T07:22:55;12.30;;;4.45;;
33491;SDS011;20010;51.488;7.232;2023-12-22T07:25:24;15.98;;;4.60;;
33491;SDS011;20010;51.488;7.232;2023-12-22T07:27:52;19.65;;;4.53;;
33491;SDS011;20010;51.488;7.232;2023-12-22T07:30:19;21.60;;;6.30;;
33491;SDS011;20010;51.488;7.232;2023-12-22T07:32:47;19.65;;;5.85;;
33491;SDS011;20010;51.488;7.232;2023-12-22T07:35:18;16.50;;;5.85;;
33491;SDS011;20010;51.488;7.232;2023-12-22T07:37:45;25.00;;;5.05;;
33491;SDS011;20010;51.488;7.232;2023-12-22T07:40:12;21.38;;;5.22;;
33491;SDS011;20010;51.488;7.232;2023-12-22T07:42:39;23.23;;;6.82;;
33491;SDS011;20010;51.488;7.232;2023-12-22T07:45:06;13.48;;;5.15;;
33491;SDS011;20010;51.488;7.232;2023-12-22T07:47:33;20.77;;;5.82;;
33491;SDS011;20010;51.488;7.232;2023-12-22T07:50:00;22.13;;;5.78;;
33491;SDS011;20010;51.488;7.232;2023-12-22T07:52:29;19.40;;;5.28;;
33491;SDS011;20010;51.488;7.232;2023-12-22T07:54:56;14.32;;;5.07;;
33491;SDS011;20010;51.488;7.232;2023-12-22T07:57:23;17.48;;;5.25;;
33491;SDS011;20010;51.488;7.232;2023-12-22T07:59:50;20.10;;;4.85;;
33491;SDS011;20010;51.488;7.232;2023-12-22T08:02:16;15.57;;;4.82;;
33491;SDS011;20010;51.488;7.232;2023-12-22T08:04:43;13.60;;;5.13;;
33491;SDS011;20010;51.488;7.232;2023-12-22T08:07:10;16.95;;;5.82;;
33491;SDS011;20010;51.488;7.232;2023-12-22T08:09:37;14.07;;;5.13;;
33491;SDS011;20010;51.488;7.232;2023-12-22T08:12:06;20.27;;;5.55;;
33491;SDS011;20010;51.488;7.232;2023-12-22T08:14:33;17.10;;;4.47;;
33491;SDS011;20010;51.488;7.232;2023-12-22T08:17:01;13.32;;;5.00;;
33491;SDS011;20010;51.488;7.232;2023-12-22T08:19:28;16.35;;;5.10;;
33491;SDS011;20010;51.488;7.232;2023-12-22T08:21:59;16.52;;;4.35;;
33491;SDS011;20010;51.488;7.232;2023-12-22T08:24:32;17.60;;;7.18;;
33491;SDS011;20010;51.488;7.232;2023-12-22T08:26:59;14.73;;;5.10;;
33491;SDS011;20010;51.488;7.232;2023-12-22T08:29:26;17.58;;;5.75;;
33491;SDS011;20010;51.488;7.232;2023-12-22T08:31:52;17.23;;;5.05;;
33491;SDS011;20010;51.488;7.232;2023-12-22T08:34:20;21.35;;;7.55;;
33491;SDS011;20010;51.488;7.232;2023-12-22T08:36:47;18.23;;;5.53;;
33491;SDS011;20010;51.488;7.232;2023-12-22T08:39:13;22.88;;;5.85;;
33491;SDS011;20010;51.488;7.232;2023-12-22T08:41:41;18.05;;;5.93;;
33491;SDS011;20010;51.488;7.232;2023-12-22T08:44:08;28.40;;;8.30;;
33491;SDS011;20010;51.488;7.232;2023-12-22T08:46:35;19.10;;;6.20;;
33491;SDS011;20010;51.488;7.232;2023-12-22T08:49:04;23.13;;;6.80;;
33491;SDS011;20010;51.488;7.232;2023-12-22T08:51:32;22.77;;;6.03;;
33491;SDS011;20010;51.488;7.232;2023-12-22T08:54:05;28.75;;;6.93;;
33491;SDS011;20010;51.488;7.232;2023-12-22T08:56:32;31.02;;;8.20;;
33491;SDS011;20010;51.488;7.232;2023-12-22T08:59:00;23.73;;;6.32;;
33491;SDS011;20010;51.488;7.232;2023-12-22T09:01:26;30.27;;;7.65;;
33491;SDS011;20010;51.488;7.232;2023-12-22T09:03:53;24.45;;;6.88;;
33491;SDS011;20010;51.488;7.232;2023-12-22T09:06:21;27.17;;;8.13;;
33491;SDS011;20010;51.488;7.232;2023-12-22T09:08:49;22.83;;;6.95;;
33491;SDS011;20010;51.488;7.232;2023-12-22T09:11:17;28.75;;;8.50;;
33491;SDS011;20010;51.488;7.232;2023-12-22T09:13:45;26.77;;;7.72;;
33491;SDS011;20010;51.488;7.232;2023-12-22T09:16:12;24.55;;;7.97;;
33491;SDS011;20010;51.488;7.232;2023-12-22T09:18:42;29.27;;;6.65;;
33491;SDS011;20010;51.488;7.232;2023-12-22T09:21:10;34.63;;;8.55;;
33491;SDS011;20010;51.488;7.232;2023-12-22T09:23:39;29.52;;;8.63;;
33491;SDS011;20010;51.488;7.232;2023-12-22T09:26:09;24.77;;;6.15;;
33491;SDS011;20010;51.488;7.232;2023-12-22T09:28:35;29.88;;;7.82;;
33491;SDS011;20010;51.488;7.232;2023-12-22T09:31:02;25.05;;;6.65;;
33491;SDS011;20010;51.488;7.232;2023-12-22T09:33:32;17.85;;;6.43;;
33491;SDS011;20010;51.488;7.232;2023-12-22T09:35:58;20.13;;;6.03;;
33491;SDS011;20010;51.488;7.232;2023-12-22T09:38:25;19.75;;;4.97;;
33491;SDS011;20010;51.488;7.232;2023-12-22T09:40:54;13.63;;;4.72;;
33491;SDS011;20010;51.488;7.232;2023-12-22T09:43:21;16.20;;;4.65;;
33491;SDS011;20010;51.488;7.232;2023-12-22T09:45:51;20.92;;;5.97;;
33491;SDS011;20010;51.488;7.232;2023-12-22T09:50:54;9.60;;;3.92;;
33491;SDS011;20010;51.488;7.232;2023-12-22T09:53:21;15.13;;;4.30;;
33491;SDS011;20010;51.488;7.232;2023-12-22T09:55:49;15.43;;;5.28;;
33491;SDS011;20010;51.488;7.232;2023-12-22T09:58:16;12.35;;;4.18;;
33491;SDS011;20010;51.488;7.232;2023-12-22T10:00:44;18.42;;;5.72;;
33491;SDS011;20010;51.488;7.232;2023-12-22T10:03:11;18.42;;;5.07;;
33491;SDS011;20010;51.488;7.232;2023-12-22T10:05:41;20.67;;;4.95;;
33491;SDS011;20010;51.488;7.232;2023-12-22T10:08:09;15.27;;;5.47;;
33491;SDS011;20010;51.488;7.232;2023-12-22T10:10:39;12.00;;;3.97;;
33491;SDS011;20010;51.488;7.232;2023-12-22T10:13:14;17.65;;;4.95;;
33491;SDS011;20010;51.488;7.232;2023-12-22T10:15:42;19.60;;;5.32;;
33491;SDS011;20010;51.488;7.232;2023-12-22T10:18:10;16.83;;;5.50;;
33491;SDS011;20010;51.488;7.232;2023-12-22T10:20:37;16.45;;;5.85;;
33491;SDS011;20010;51.488;7.232;2023-12-22T10:23:04;18.42;;;6.05;;
33491;SDS011;20010;51.488;7.232;2023-12-22T10:25:32;18.95;;;6.47;;
33491;SDS011;20010;51.488;7.232;2023-12-22T10:27:59;13.80;;;6.47;;
33491;SDS011;20010;51.488;7.232;2023-12-22T10:30:26;21.73;;;6.72;;
33491;SDS011;20010;51.488;7.232;2023-12-22T10:32:54;17.65;;;6.38;;
33491;SDS011;20010;51.488;7.232;2023-12-22T10:35:21;15.40;;;6.45;;
33491;SDS011;20010;51.488;7.232;2023-12-22T10:37:48;17.98;;;6.40;;
33491;SDS011;20010;51.488;7.232;2023-12-22T10:40:19;20.80;;;6.68;;
33491;SDS011;20010;51.488;7.232;2023-12-22T10:42:46;18.35;;;7.05;;
33491;SDS011;20010;51.488;7.232;2023-12-22T10:45:14;15.07;;;6.53;;
33491;SDS011;20010;51.488;7.232;2023-12-22T10:47:43;20.40;;;6.97;;
33491;SDS011;20010;51.488;7.232;2023-12-22T10:50:14;15.35;;;6.10;;
33491;SDS011;20010;51.488;7.232;2023-12-22T10:52:41;19.00;;;7.47;;
33491;SDS011;20010;51.488;7.232;2023-12-22T10:55:08;17.52;;;6.80;;
33491;SDS011;20010;51.488;7.232;2023-12-22T10:57:35;23.65;;;7.05;;
33491;SDS011;20010;51.488;7.232;2023-12-22T11:00:05;25.08;;;7.30;;
33491;SDS011;20010;51.488;7.232;2023-12-22T11:02:34;17.50;;;5.35;;
33491;SDS011;20010;51.488;7.232;2023-12-22T11:05:05;17.98;;;6.25;;
33491;SDS011;20010;51.488;7.232;2023-12-22T11:07:33;14.63;;;5.70;;
33491;SDS011;20010;51.488;7.232;2023-12-22T11:10:03;12.45;;;4.55;;
33491;SDS011;20010;51.488;7.232;2023-12-22T11:12:36;14.30;;;4.60;;
33491;SDS011;20010;51.488;7.232;2023-12-22T11:15:04;7.80;;;3.92;;
33491;SDS011;20010;51.488;7.232;2023-12-22T11:17:34;12.57;;;4.70;;
33491;SDS011;20010;51.488;7.232;2023-12-22T11:20:12;6.13;;;3.67;;
33491;SDS011;20010;51.488;7.232;2023-12-22T11:22:40;6.60;;;3.60;;
33491;SDS011;20010;51.488;7.232;2023-12-22T11:25:08;6.82;;;3.50;;
33491;SDS011;20010;51.488;7.232;2023-12-22T11:27:40;9.95;;;3.25;;
33491;SDS011;20010;51.488;7.232;2023-12-22T11:30:10;9.93;;;4.28;;
33491;SDS011;20010;51.488;7.232;2023-12-22T11:32:38;3.38;;;2.70;;
33491;SDS011;20010;51.488;7.232;2023-12-22T11:35:06;8.48;;;3.33;;
33491;SDS011;20010;51.488;7.232;2023-12-22T11:37:35;10.18;;;3.40;;
33491;SDS011;20010;51.488;7.232;2023-12-22T11:40:03;10.23;;;3.53;;
33491;SDS011;20010;51.488;7.232;2023-12-22T11:42:32;4.43;;;3.78;;
33491;SDS011;20010;51.488;7.232;2023-12-22T11:45:03;7.47;;;4.03;;
33491;SDS011;20010;51.488;7.232;2023-12-22T11:47:32;5.43;;;3.35;;
33491;SDS011;20010;51.488;7.232;2023-12-22T11:50:01;3.72;;;3.33;;
33491;SDS011;20010;51.488;7.232;2023-12-22T11:52:28;5.57;;;3.22;;
33491;SDS011;20010;51.488;7.232;2023-12-22T11:54:55;3.92;;;3.00;;
33491;SDS011;20010;51.488;7.232;2023-12-22T11:57:32;7.55;;;3.63;;
33491;SDS011;20010;51.488;7.232;2023-12-22T12:02:54;5.82;;;3.50;;
33491;SDS011;20010;51.488;7.232;2023-12-22T12:05:22;6.03;;;3.75;;
33491;SDS011;20010;51.488;7.232;2023-12-22T12:07:49;7.65;;;4.15;;
33491;SDS011;20010;51.488;7.232;2023-12-22T12:10:36;5.25;;;3.85;;
33491;SDS011;20010;51.488;7.232;2023-12-22T12:13:21;8.98;;;4.13;;
33491;SDS011;20010;51.488;7.232;2023-12-22T12:15:49;4.82;;;4.30;;
33491;SDS011;20010;51.488;7.232;2023-12-22T12:18:21;8.60;;;3.92;;
33491;SDS011;20010;51.488;7.232;2023-12-22T12:20:49;5.05;;;4.30;;
33491;SDS011;20010;51.488;7.232;2023-12-22T12:23:16;6.53;;;4.15;;
33491;SDS011;20010;51.488;7.232;2023-12-22T12:25:44;6.25;;;4.47;;
33491;SDS011;20010;51.488;7.232;2023-12-22T12:28:10;5.07;;;4.68;;
33491;SDS011;20010;51.488;7.232;2023-12-22T12:30:40;12.40;;;5.70;;
33491;SDS011;20010;51.488;7.232;2023-12-22T12:33:08;10.13;;;5.50;;
33491;SDS011;20010;51.488;7.232;2023-12-22T12:35:40;10.18;;;6.05;;
33491;SDS011;20010;51.488;7.232;2023-12-22T12:38:16;10.35;;;6.60;;
33491;SDS011;20010;51.488;7.232;2023-12-22T12:40:44;12.18;;;7.00;;
33491;SDS011;20010;51.488;7.232;2023-12-22T12:43:12;15.60;;;7.95;;
33491;SDS011;20010;51.488;7.232;2023-12-22T12:45:39;11.00;;;6.80;;
33491;SDS011;20010;51.488;7.232;2023-12-22T12:48:07;9.43;;;6.40;;
33491;SDS011;20010;51.488;7.232;2023-12-22T12:50:35;11.98;;;6.30;;
33491;SDS011;20010;51.488;7.232;2023-12-22T12:53:05;12.43;;;6.82;;
33491;SDS011;20010;51.488;7.232;2023-12-22T12:55:33;16.85;;;5.88;;
33491;SDS011;20010;51.488;7.232;2023-12-22T12:58:00;6.75;;;4.75;;
33491;SDS011;20010;51.488;7.232;2023-12-22T13:02:54;10.13;;;4.10;;
33491;SDS011;20010;51.488;7.232;2023-12-22T13:05:22;6.15;;;3.72;;
33491;SDS011;20010;51.488;7.232;2023-12-22T13:07:49;7.07;;;3.90;;
33491;SDS011;20010;51.488;7.232;2023-12-22T13:12:51;2.95;;;2.75;;
33491;SDS011;20010;51.488;7.232;2023-12-22T13:15:25;5.72;;;3.28;;
33491;SDS011;20010;51.488;7.232;2023-12-22T13:17:51;4.80;;;3.38;;
33491;SDS011;20010;51.488;7.232;2023-12-22T13:20:19;4.15;;;2.78;;
33491;SDS011;20010;51.488;7.232;2023-12-22T13:22:47;6.35;;;2.75;;
33491;SDS011;20010;51.488;7.232;2023-12-22T13:25:14;6.50;;;2.50;;
33491;SDS011;20010;51.488;7.232;2023-12-22T13:27:45;6.57;;;3.05;;
33491;SDS011;20010;51.488;7.232;2023-12-22T13:30:32;5.00;;;2.70;;
33491;SDS011;20010;51.488;7.232;2023-12-22T13:33:04;4.63;;;2.80;;
33491;SDS011;20010;51.488;7.232;2023-12-22T13:35:31;3.65;;;2.90;;
33491;SDS011;20010;51.488;7.232;2023-12-22T13:38:05;5.50;;;3.08;;
33491;SDS011;20010;51.488;7.232;2023-12-22T13:40:33;7.57;;;3.60;;
33491;SDS011;20010;51.488;7.232;2023-12-22T13:43:00;5.93;;;3.50;;
33491;SDS011;20010;51.488;7.232;2023-12-22T13:45:28;6.15;;;3.63;;
33491;SDS011;20010;51.488;7.232;2023-12-22T13:47:56;4.53;;;3.53;;
33491;SDS011;20010;51.488;7.232;2023-12-22T13:50:24;6.95;;;3.25;;
33491;SDS011;20010;51.488;7.232;2023-12-22T13:52:51;5.25;;;3.15;;
33491;SDS011;20010;51.488;7.232;2023-12-22T13:55:20;6.65;;;3.00;;
33491;SDS011;20010;51.488;7.232;2023-12-22T13:57:58;4.90;;;3.25;;
33491;SDS011;20010;51.488;7.232;2023-12-22T14:00:30;3.90;;;2.60;;
33491;SDS011;20010;51.488;7.232;2023-12-22T14:02:58;8.10;;;3.88;;
33491;SDS011;20010;51.488;7.232;2023-12-22T14:05:28;8.52;;;3.30;;
33491;SDS011;20010;51.488;7.232;2023-12-22T14:08:00;6.05;;;3.10;;
33491;SDS011;20010;51.488;7.232;2023-12-22T14:10:28;7.15;;;2.90;;
33491;SDS011;20010;51.488;7.232;2023-12-22T14:12:55;4.80;;;3.00;;
33491;SDS011;20010;51.488;7.232;2023-12-22T14:15:22;5.78;;;2.70;;
33491;SDS011;20010;51.488;7.232;2023-12-22T14:17:56;4.63;;;3.30;;
33491;SDS011;20010;51.488;7.232;2023-12-22T14:20:23;6.55;;;3.03;;
33491;SDS011;20010;51.488;7.232;2023-12-22T14:22:51;9.30;;;3.95;;
33491;SDS011;20010;51.488;7.232;2023-12-22T14:25:19;4.50;;;3.10;;
33491;SDS011;20010;51.488;7.232;2023-12-22T14:27:45;8.18;;;3.30;;
33491;SDS011;20010;51.488;7.232;2023-12-22T14:30:13;3.72;;;2.95;;
33491;SDS011;20010;51.488;7.232;2023-12-22T14:32:40;10.32;;;4.13;;
33491;SDS011;20010;51.488;7.232;2023-12-22T14:35:07;6.30;;;3.25;;
33491;SDS011;20010;51.488;7.232;2023-12-22T14:37:34;8.27;;;3.03;;
33491;SDS011;20010;51.488;7.232;2023-12-22T14:40:04;3.88;;;3.08;;
33491;SDS011;20010;51.488;7.232;2023-12-22T14:42:32;5.72;;;2.90;;
33491;SDS011;20010;51.488;7.232;2023-12-22T14:44:59;6.63;;;3.28;;
33491;SDS011;20010;51.488;7.232;2023-12-22T14:47:28;11.10;;;3.97;;
33491;SDS011;20010;51.488;7.232;2023-12-22T14:49:57;13.23;;;3.80;;
33491;SDS011;20010;51.488;7.232;2023-12-22T14:52:32;6.60;;;3.45;;
33491;SDS011;20010;51.488;7.232;2023-12-22T14:54:59;4.20;;;2.90;;
33491;SDS011;20010;51.488;7.232;2023-12-22T14:57:27;5.40;;;3.33;;